sensor_id;sensor_type;location;lat;lon;timestamp;P1;durP1;ratioP1;P2;durP2;ratioP2
8458;SDS011;4266;48.816;9.154;2024-03-08T00:00:11;34.67;;;24.80;;
8458;SDS011;4266;48.816;9.154;2024-03-08T00:02:38;32.93;;;24.10;;
8458;SDS011;4266;48.816;9.154;2024-03-08T00:05:05;32.67;;;25.67;;
8458;SDS011;4266;48.816;9.154;2024-03-08T00:07:31;35.80;;;24.90;;
8458;SDS011;4266;48.816;9.154;2024-03-08T00:09:57;35.47;;;24.87;;
8458;SDS011;4266;48.816;9.154;2024-03-08T00:12:23;32.77;;;25.33;;
8458;SDS011;4266;48.816;9.154;2024-03-08T00:14:50;35.40;;;24.97;;
8458;SDS011;4266;48.816;9.154;2024-03-08T00:17:15;34.73;;;25.17;;
8458;SDS011;4266;48.816;9.154;2024-03-08T00:19:42;30.47;;;23.27;;
8458;SDS011;4266;48.816;9.154;2024-03-08T00:22:07;33.70;;;25.17;;
8458;SDS011;4266;48.816;9.154;2024-03-08T00:24:34;36.97;;;24.97;;
8458;SDS011;4266;48.816;9.154;2024-03-08T00:27:00;33.03;;;25.03;;
8458;SDS011;4266;48.816;9.154;2024-03-08T00:29:27;29.93;;;23.70;;
8458;SDS011;4266;48.816;9.154;2024-03-08T00:31:52;37.30;;;25.27;;
8458;SDS011;4266;48.816;9.154;2024-03-08T00:34:18;34.40;;;25.43;;
8458;SDS011;4266;48.816;9.154;2024-03-08T00:36:44;30.50;;;22.83;;
8458;SDS011;4266;48.816;9.154;2024-03-08T00:39:09;31.25;;;24.50;;
8458;SDS011;4266;48.816;9.154;2024-03-08T00:41:35;32.43;;;23.07;;
8458;SDS011;4266;48.816;9.154;2024-03-08T00:44:01;33.40;;;24.10;;
8458;SDS011;4266;48.816;9.154;2024-03-08T00:46:27;34.53;;;25.37;;
8458;SDS011;4266;48.816;9.154;2024-03-08T00:48:52;32.25;;;24.00;;
8458;SDS011;4266;48.816;9.154;2024-03-08T00:51:18;35.63;;;25.00;;
8458;SDS011;4266;48.816;9.154;2024-03-08T00:53:45;29.53;;;22.53;;
8458;SDS011;4266;48.816;9.154;2024-03-08T00:56:12;31.40;;;23.73;;
8458;SDS011;4266;48.816;9.154;2024-03-08T00:58:38;33.23;;;23.93;;
8458;SDS011;4266;48.816;9.154;2024-03-08T01:01:04;32.23;;;24.40;;
8458;SDS011;4266;48.816;9.154;2024-03-08T01:03:30;30.10;;;22.33;;
8458;SDS011;4266;48.816;9.154;2024-03-08T01:05:56;31.30;;;22.90;;
8458;SDS011;4266;48.816;9.154;2024-03-08T01:08:21;28.13;;;22.33;;
8458;SDS011;4266;48.816;9.154;2024-03-08T01:10:48;32.90;;;23.80;;
8458;SDS011;4266;48.816;9.154;2024-03-08T01:13:14;36.53;;;24.50;;
8458;SDS011;4266;48.816;9.154;2024-03-08T01:15:40;32.63;;;23.60;;
8458;SDS011;4266;48.816;9.154;2024-03-08T01:18:06;32.57;;;25.40;;
8458;SDS011;4266;48.816;9.154;2024-03-08T01:20:32;29.33;;;23.20;;
8458;SDS011;4266;48.816;9.154;2024-03-08T01:22:58;32.03;;;24.80;;
8458;SDS011;4266;48.816;9.154;2024-03-08T01:25:25;36.13;;;25.13;;
8458;SDS011;4266;48.816;9.154;2024-03-08T01:27:51;30.30;;;23.23;;
8458;SDS011;4266;48.816;9.154;2024-03-08T01:30:17;31.17;;;24.00;;
8458;SDS011;4266;48.816;9.154;2024-03-08T01:32:43;31.97;;;23.87;;
8458;SDS011;4266;48.816;9.154;2024-03-08T01:35:09;33.33;;;24.40;;
8458;SDS011;4266;48.816;9.154;2024-03-08T01:37:34;31.45;;;23.65;;
8458;SDS011;4266;48.816;9.154;2024-03-08T01:40:00;34.60;;;23.80;;
8458;SDS011;4266;48.816;9.154;2024-03-08T01:42:26;34.10;;;24.63;;
8458;SDS011;4266;48.816;9.154;2024-03-08T01:44:52;34.23;;;23.60;;
8458;SDS011;4266;48.816;9.154;2024-03-08T01:47:18;30.70;;;23.60;;
8458;SDS011;4266;48.816;9.154;2024-03-08T01:49:44;32.97;;;23.33;;
8458;SDS011;4266;48.816;9.154;2024-03-08T01:54:41;30.43;;;23.60;;
8458;SDS011;4266;48.816;9.154;2024-03-08T01:57:08;32.40;;;24.93;;
8458;SDS011;4266;48.816;9.154;2024-03-08T01:59:33;31.90;;;24.60;;
8458;SDS011;4266;48.816;9.154;2024-03-08T02:02:00;32.63;;;24.63;;
8458;SDS011;4266;48.816;9.154;2024-03-08T02:04:26;32.77;;;23.17;;
8458;SDS011;4266;48.816;9.154;2024-03-08T02:06:52;33.37;;;24.87;;
8458;SDS011;4266;48.816;9.154;2024-03-08T02:09:18;32.47;;;23.30;;
8458;SDS011;4266;48.816;9.154;2024-03-08T02:11:45;33.63;;;24.10;;
8458;SDS011;4266;48.816;9.154;2024-03-08T02:14:10;31.83;;;24.13;;
8458;SDS011;4266;48.816;9.154;2024-03-08T02:16:36;31.63;;;24.40;;
8458;SDS011;4266;48.816;9.154;2024-03-08T02:19:02;29.60;;;23.33;;
8458;SDS011;4266;48.816;9.154;2024-03-08T02:21:27;35.47;;;23.53;;
8458;SDS011;4266;48.816;9.154;2024-03-08T02:23:53;34.87;;;23.03;;
8458;SDS011;4266;48.816;9.154;2024-03-08T02:26:19;30.57;;;23.17;;
8458;SDS011;4266;48.816;9.154;2024-03-08T02:28:45;34.03;;;23.90;;
8458;SDS011;4266;48.816;9.154;2024-03-08T02:31:11;30.63;;;23.40;;
8458;SDS011;4266;48.816;9.154;2024-03-08T02:33:36;35.87;;;24.37;;
8458;SDS011;4266;48.816;9.154;2024-03-08T02:36:02;33.00;;;24.93;;
8458;SDS011;4266;48.816;9.154;2024-03-08T02:38:29;35.43;;;24.13;;
8458;SDS011;4266;48.816;9.154;2024-03-08T02:40:55;31.13;;;23.87;;
8458;SDS011;4266;48.816;9.154;2024-03-08T02:43:21;34.53;;;24.70;;
8458;SDS011;4266;48.816;9.154;2024-03-08T02:45:46;33.27;;;23.83;;
8458;SDS011;4266;48.816;9.154;2024-03-08T02:48:12;33.07;;;24.53;;
8458;SDS011;4266;48.816;9.154;2024-03-08T02:50:37;30.80;;;22.50;;
8458;SDS011;4266;48.816;9.154;2024-03-08T02:53:03;34.23;;;25.07;;
8458;SDS011;4266;48.816;9.154;2024-03-08T02:55:29;34.85;;;24.35;;
8458;SDS011;4266;48.816;9.154;2024-03-08T02:57:55;34.90;;;25.10;;
8458;SDS011;4266;48.816;9.154;2024-03-08T03:00:21;33.27;;;24.07;;
8458;SDS011;4266;48.816;9.154;2024-03-08T03:02:50;33.63;;;23.23;;
8458;SDS011;4266;48.816;9.154;2024-03-08T03:07:43;33.20;;;23.63;;
8458;SDS011;4266;48.816;9.154;2024-03-08T03:12:35;28.83;;;22.30;;
8458;SDS011;4266;48.816;9.154;2024-03-08T03:15:00;30.20;;;22.40;;
8458;SDS011;4266;48.816;9.154;2024-03-08T03:17:26;32.15;;;22.80;;
8458;SDS011;4266;48.816;9.154;2024-03-08T03:19:52;33.00;;;22.50;;
8458;SDS011;4266;48.816;9.154;2024-03-08T03:22:18;34.40;;;22.40;;
8458;SDS011;4266;48.816;9.154;2024-03-08T03:24:43;31.70;;;22.43;;
8458;SDS011;4266;48.816;9.154;2024-03-08T03:27:09;34.77;;;23.97;;
8458;SDS011;4266;48.816;9.154;2024-03-08T03:29:37;30.65;;;22.20;;
8458;SDS011;4266;48.816;9.154;2024-03-08T03:32:03;31.90;;;23.00;;
8458;SDS011;4266;48.816;9.154;2024-03-08T03:34:29;32.10;;;22.30;;
8458;SDS011;4266;48.816;9.154;2024-03-08T03:36:54;30.90;;;21.77;;
8458;SDS011;4266;48.816;9.154;2024-03-08T03:39:20;34.73;;;21.63;;
8458;SDS011;4266;48.816;9.154;2024-03-08T03:41:46;28.10;;;21.17;;
8458;SDS011;4266;48.816;9.154;2024-03-08T03:44:12;29.67;;;21.37;;
8458;SDS011;4266;48.816;9.154;2024-03-08T03:46:41;27.60;;;19.60;;
8458;SDS011;4266;48.816;9.154;2024-03-08T03:49:04;29.23;;;21.37;;
8458;SDS011;4266;48.816;9.154;2024-03-08T03:51:30;31.20;;;22.67;;
8458;SDS011;4266;48.816;9.154;2024-03-08T03:53:56;30.60;;;21.50;;
8458;SDS011;4266;48.816;9.154;2024-03-08T04:01:30;27.13;;;20.90;;
8458;SDS011;4266;48.816;9.154;2024-03-08T04:03:56;30.00;;;19.77;;
8458;SDS011;4266;48.816;9.154;2024-03-08T04:06:21;28.70;;;21.20;;
8458;SDS011;4266;48.816;9.154;2024-03-08T04:08:47;26.70;;;20.60;;
8458;SDS011;4266;48.816;9.154;2024-03-08T04:11:13;30.20;;;21.10;;
8458;SDS011;4266;48.816;9.154;2024-03-08T04:16:05;29.35;;;21.70;;
8458;SDS011;4266;48.816;9.154;2024-03-08T04:20:57;27.73;;;19.90;;
8458;SDS011;4266;48.816;9.154;2024-03-08T04:40:25;25.30;;;20.07;;
8458;SDS011;4266;48.816;9.154;2024-03-08T04:42:50;29.67;;;21.87;;
8458;SDS011;4266;48.816;9.154;2024-03-08T04:45:17;29.77;;;21.73;;
8458;SDS011;4266;48.816;9.154;2024-03-08T04:47:43;31.97;;;21.83;;
8458;SDS011;4266;48.816;9.154;2024-03-08T04:50:09;31.60;;;22.00;;
8458;SDS011;4266;48.816;9.154;2024-03-08T04:52:35;31.00;;;21.90;;
8458;SDS011;4266;48.816;9.154;2024-03-08T04:57:29;31.43;;;21.13;;
8458;SDS011;4266;48.816;9.154;2024-03-08T04:59:55;30.07;;;22.73;;
8458;SDS011;4266;48.816;9.154;2024-03-08T05:02:21;34.83;;;22.50;;
8458;SDS011;4266;48.816;9.154;2024-03-08T05:04:46;30.73;;;22.67;;
8458;SDS011;4266;48.816;9.154;2024-03-08T05:07:12;32.40;;;22.87;;
8458;SDS011;4266;48.816;9.154;2024-03-08T05:09:38;30.80;;;22.30;;
8458;SDS011;4266;48.816;9.154;2024-03-08T05:12:04;31.00;;;22.93;;
8458;SDS011;4266;48.816;9.154;2024-03-08T05:14:30;28.37;;;22.50;;
8458;SDS011;4266;48.816;9.154;2024-03-08T05:16:56;29.60;;;22.00;;
8458;SDS011;4266;48.816;9.154;2024-03-08T05:19:22;31.55;;;22.10;;
8458;SDS011;4266;48.816;9.154;2024-03-08T05:21:48;31.07;;;22.67;;
8458;SDS011;4266;48.816;9.154;2024-03-08T05:24:14;32.10;;;22.07;;
8458;SDS011;4266;48.816;9.154;2024-03-08T05:26:40;30.77;;;22.50;;
8458;SDS011;4266;48.816;9.154;2024-03-08T05:31:38;29.60;;;21.70;;
8458;SDS011;4266;48.816;9.154;2024-03-08T05:53:23;29.70;;;22.40;;
8458;SDS011;4266;48.816;9.154;2024-03-08T05:55:49;32.10;;;22.90;;
8458;SDS011;4266;48.816;9.154;2024-03-08T06:32:20;31.45;;;23.30;;
8458;SDS011;4266;48.816;9.154;2024-03-08T07:52:49;25.00;;;19.50;;
8458;SDS011;4266;48.816;9.154;2024-03-08T10:16:15;29.00;;;20.25;;
8458;SDS011;4266;48.816;9.154;2024-03-08T10:18:42;27.90;;;21.60;;
8458;SDS011;4266;48.816;9.154;2024-03-08T10:21:08;23.63;;;19.87;;
8458;SDS011;4266;48.816;9.154;2024-03-08T10:26:09;25.85;;;19.90;;
8458;SDS011;4266;48.816;9.154;2024-03-08T10:30:58;24.85;;;19.55;;
8458;SDS011;4266;48.816;9.154;2024-03-08T10:33:23;23.90;;;19.33;;
8458;SDS011;4266;48.816;9.154;2024-03-08T10:35:49;22.50;;;19.33;;
8458;SDS011;4266;48.816;9.154;2024-03-08T10:38:15;25.47;;;19.87;;
8458;SDS011;4266;48.816;9.154;2024-03-08T10:40:40;23.10;;;19.37;;
8458;SDS011;4266;48.816;9.154;2024-03-08T10:43:06;23.27;;;20.23;;
8458;SDS011;4266;48.816;9.154;2024-03-08T10:45:36;23.87;;;19.07;;
8458;SDS011;4266;48.816;9.154;2024-03-08T10:48:10;25.73;;;19.57;;
8458;SDS011;4266;48.816;9.154;2024-03-08T10:50:50;22.90;;;19.10;;
8458;SDS011;4266;48.816;9.154;2024-03-08T10:53:17;22.80;;;18.20;;
8458;SDS011;4266;48.816;9.154;2024-03-08T10:55:42;24.50;;;18.70;;
8458;SDS011;4266;48.816;9.154;2024-03-08T11:00:34;23.90;;;19.20;;
8458;SDS011;4266;48.816;9.154;2024-03-08T11:02:59;24.40;;;20.10;;
8458;SDS011;4266;48.816;9.154;2024-03-08T11:05:31;22.27;;;18.43;;
8458;SDS011;4266;48.816;9.154;2024-03-08T11:07:57;22.03;;;19.63;;
8458;SDS011;4266;48.816;9.154;2024-03-08T11:10:23;20.33;;;18.13;;
8458;SDS011;4266;48.816;9.154;2024-03-08T11:12:49;21.63;;;18.80;;
8458;SDS011;4266;48.816;9.154;2024-03-08T11:15:14;20.80;;;18.33;;
8458;SDS011;4266;48.816;9.154;2024-03-08T11:17:41;25.10;;;19.90;;
8458;SDS011;4266;48.816;9.154;2024-03-08T11:20:11;21.57;;;19.27;;
8458;SDS011;4266;48.816;9.154;2024-03-08T11:22:35;21.13;;;18.93;;
8458;SDS011;4266;48.816;9.154;2024-03-08T11:25:02;25.27;;;18.90;;
8458;SDS011;4266;48.816;9.154;2024-03-08T11:27:30;21.53;;;18.73;;
8458;SDS011;4266;48.816;9.154;2024-03-08T11:30:01;22.20;;;19.70;;
8458;SDS011;4266;48.816;9.154;2024-03-08T11:32:27;20.40;;;18.10;;
8458;SDS011;4266;48.816;9.154;2024-03-08T11:34:52;21.73;;;19.37;;
8458;SDS011;4266;48.816;9.154;2024-03-08T11:37:18;21.17;;;18.43;;
8458;SDS011;4266;48.816;9.154;2024-03-08T11:39:46;22.00;;;19.70;;
8458;SDS011;4266;48.816;9.154;2024-03-08T11:42:11;21.13;;;19.03;;
8458;SDS011;4266;48.816;9.154;2024-03-08T11:44:38;20.63;;;17.83;;
8458;SDS011;4266;48.816;9.154;2024-03-08T11:47:08;20.48;;;18.27;;
8458;SDS011;4266;48.816;9.154;2024-03-08T11:49:31;19.70;;;17.77;;
8458;SDS011;4266;48.816;9.154;2024-03-08T11:51:55;20.95;;;18.92;;
8458;SDS011;4266;48.816;9.154;2024-03-08T11:54:21;20.85;;;18.62;;
8458;SDS011;4266;48.816;9.154;2024-03-08T11:56:47;20.73;;;18.83;;
8458;SDS011;4266;48.816;9.154;2024-03-08T11:59:13;44.58;;;17.73;;
8458;SDS011;4266;48.816;9.154;2024-03-08T12:01:39;19.92;;;18.05;;
8458;SDS011;4266;48.816;9.154;2024-03-08T12:04:04;21.17;;;19.10;;
8458;SDS011;4266;48.816;9.154;2024-03-08T12:06:37;21.52;;;19.40;;
8458;SDS011;4266;48.816;9.154;2024-03-08T12:09:02;19.08;;;17.12;;
8458;SDS011;4266;48.816;9.154;2024-03-08T12:11:27;20.90;;;18.37;;
8458;SDS011;4266;48.816;9.154;2024-03-08T12:13:53;19.80;;;17.92;;
8458;SDS011;4266;48.816;9.154;2024-03-08T12:16:19;21.65;;;18.37;;
8458;SDS011;4266;48.816;9.154;2024-03-08T12:18:44;20.83;;;18.83;;
8458;SDS011;4266;48.816;9.154;2024-03-08T12:21:11;20.80;;;18.70;;
8458;SDS011;4266;48.816;9.154;2024-03-08T12:23:37;24.63;;;18.73;;
8458;SDS011;4266;48.816;9.154;2024-03-08T12:28:38;21.00;;;18.90;;
8458;SDS011;4266;48.816;9.154;2024-03-08T12:31:04;21.98;;;19.77;;
8458;SDS011;4266;48.816;9.154;2024-03-08T12:33:30;21.83;;;19.65;;
8458;SDS011;4266;48.816;9.154;2024-03-08T12:35:56;22.60;;;20.40;;
8458;SDS011;4266;48.816;9.154;2024-03-08T12:38:21;22.73;;;20.40;;
8458;SDS011;4266;48.816;9.154;2024-03-08T12:40:47;22.08;;;19.98;;
8458;SDS011;4266;48.816;9.154;2024-03-08T12:43:13;22.13;;;19.73;;
8458;SDS011;4266;48.816;9.154;2024-03-08T12:45:38;22.02;;;19.83;;
8458;SDS011;4266;48.816;9.154;2024-03-08T12:48:04;24.33;;;21.33;;
8458;SDS011;4266;48.816;9.154;2024-03-08T12:50:32;22.40;;;20.15;;
8458;SDS011;4266;48.816;9.154;2024-03-08T12:52:58;22.85;;;20.55;;
8458;SDS011;4266;48.816;9.154;2024-03-08T12:55:23;23.30;;;21.02;;
8458;SDS011;4266;48.816;9.154;2024-03-08T12:57:49;22.98;;;20.65;;
8458;SDS011;4266;48.816;9.154;2024-03-08T13:00:15;23.95;;;21.55;;
8458;SDS011;4266;48.816;9.154;2024-03-08T13:02:45;24.45;;;21.92;;
8458;SDS011;4266;48.816;9.154;2024-03-08T13:05:12;24.65;;;22.15;;
8458;SDS011;4266;48.816;9.154;2024-03-08T13:07:38;24.63;;;21.27;;
8458;SDS011;4266;48.816;9.154;2024-03-08T13:10:04;24.30;;;21.25;;
8458;SDS011;4266;48.816;9.154;2024-03-08T13:12:31;23.55;;;21.15;;
8458;SDS011;4266;48.816;9.154;2024-03-08T13:14:57;23.25;;;20.90;;
8458;SDS011;4266;48.816;9.154;2024-03-08T13:17:22;23.15;;;20.75;;
8458;SDS011;4266;48.816;9.154;2024-03-08T13:19:50;23.60;;;21.12;;
8458;SDS011;4266;48.816;9.154;2024-03-08T13:22:15;24.67;;;22.08;;
8458;SDS011;4266;48.816;9.154;2024-03-08T13:24:41;24.67;;;22.08;;
8458;SDS011;4266;48.816;9.154;2024-03-08T13:27:08;24.08;;;21.50;;
8458;SDS011;4266;48.816;9.154;2024-03-08T13:29:33;24.00;;;21.52;;
8458;SDS011;4266;48.816;9.154;2024-03-08T13:31:59;25.33;;;21.95;;
8458;SDS011;4266;48.816;9.154;2024-03-08T13:34:24;24.52;;;20.85;;
8458;SDS011;4266;48.816;9.154;2024-03-08T13:36:50;24.10;;;20.23;;
8458;SDS011;4266;48.816;9.154;2024-03-08T13:39:16;23.35;;;20.95;;
8458;SDS011;4266;48.816;9.154;2024-03-08T13:41:42;22.85;;;20.40;;
8458;SDS011;4266;48.816;9.154;2024-03-08T13:44:08;23.52;;;20.95;;
8458;SDS011;4266;48.816;9.154;2024-03-08T13:46:33;24.20;;;20.83;;
8458;SDS011;4266;48.816;9.154;2024-03-08T13:49:03;27.17;;;22.00;;
8458;SDS011;4266;48.816;9.154;2024-03-08T13:51:25;24.40;;;20.50;;
8458;SDS011;4266;48.816;9.154;2024-03-08T13:53:51;25.70;;;21.77;;
8458;SDS011;4266;48.816;9.154;2024-03-08T13:56:17;25.90;;;21.70;;
8458;SDS011;4266;48.816;9.154;2024-03-08T13:58:43;24.03;;;21.17;;
8458;SDS011;4266;48.816;9.154;2024-03-08T14:01:09;22.60;;;20.20;;
8458;SDS011;4266;48.816;9.154;2024-03-08T14:03:36;23.73;;;19.77;;
8458;SDS011;4266;48.816;9.154;2024-03-08T14:06:02;24.63;;;21.90;;
8458;SDS011;4266;48.816;9.154;2024-03-08T14:08:28;25.60;;;21.27;;
8458;SDS011;4266;48.816;9.154;2024-03-08T14:10:54;27.53;;;22.07;;
8458;SDS011;4266;48.816;9.154;2024-03-08T14:13:20;28.27;;;22.07;;
8458;SDS011;4266;48.816;9.154;2024-03-08T14:15:45;26.83;;;22.00;;
8458;SDS011;4266;48.816;9.154;2024-03-08T14:18:11;27.30;;;22.10;;
8458;SDS011;4266;48.816;9.154;2024-03-08T14:20:37;26.63;;;21.37;;
8458;SDS011;4266;48.816;9.154;2024-03-08T14:23:03;27.23;;;21.73;;
8458;SDS011;4266;48.816;9.154;2024-03-08T14:25:28;25.90;;;20.60;;
8458;SDS011;4266;48.816;9.154;2024-03-08T14:27:54;25.80;;;21.20;;
8458;SDS011;4266;48.816;9.154;2024-03-08T14:30:20;29.20;;;21.97;;
8458;SDS011;4266;48.816;9.154;2024-03-08T14:32:53;32.67;;;22.47;;
8458;SDS011;4266;48.816;9.154;2024-03-08T14:35:18;26.23;;;20.40;;
8458;SDS011;4266;48.816;9.154;2024-03-08T14:37:45;28.00;;;20.47;;
8458;SDS011;4266;48.816;9.154;2024-03-08T14:40:10;27.67;;;21.03;;
8458;SDS011;4266;48.816;9.154;2024-03-08T14:42:36;27.43;;;21.97;;
8458;SDS011;4266;48.816;9.154;2024-03-08T14:45:02;26.07;;;21.20;;
8458;SDS011;4266;48.816;9.154;2024-03-08T14:47:28;27.63;;;21.17;;
8458;SDS011;4266;48.816;9.154;2024-03-08T14:49:54;26.10;;;21.47;;
8458;SDS011;4266;48.816;9.154;2024-03-08T14:52:21;25.23;;;20.40;;
8458;SDS011;4266;48.816;9.154;2024-03-08T14:54:53;25.80;;;20.40;;
8458;SDS011;4266;48.816;9.154;2024-03-08T14:57:18;29.03;;;21.67;;
8458;SDS011;4266;48.816;9.154;2024-03-08T14:59:44;25.47;;;20.77;;
8458;SDS011;4266;48.816;9.154;2024-03-08T15:02:10;27.60;;;21.13;;
8458;SDS011;4266;48.816;9.154;2024-03-08T15:04:36;27.70;;;22.13;;
8458;SDS011;4266;48.816;9.154;2024-03-08T15:07:02;30.13;;;23.20;;
8458;SDS011;4266;48.816;9.154;2024-03-08T15:09:27;30.70;;;22.37;;
8458;SDS011;4266;48.816;9.154;2024-03-08T15:11:53;29.93;;;24.13;;
8458;SDS011;4266;48.816;9.154;2024-03-08T15:14:18;26.47;;;21.80;;
8458;SDS011;4266;48.816;9.154;2024-03-08T15:16:45;27.87;;;20.53;;
8458;SDS011;4266;48.816;9.154;2024-03-08T15:19:11;27.60;;;20.90;;
8458;SDS011;4266;48.816;9.154;2024-03-08T15:21:37;31.57;;;21.60;;
8458;SDS011;4266;48.816;9.154;2024-03-08T15:24:03;28.33;;;20.87;;
8458;SDS011;4266;48.816;9.154;2024-03-08T15:26:29;26.27;;;20.57;;
8458;SDS011;4266;48.816;9.154;2024-03-08T15:28:55;26.73;;;21.00;;
8458;SDS011;4266;48.816;9.154;2024-03-08T15:31:21;25.37;;;20.70;;
8458;SDS011;4266;48.816;9.154;2024-03-08T15:33:46;25.37;;;20.37;;
8458;SDS011;4266;48.816;9.154;2024-03-08T15:36:14;26.17;;;20.90;;
8458;SDS011;4266;48.816;9.154;2024-03-08T15:38:40;24.63;;;20.40;;
8458;SDS011;4266;48.816;9.154;2024-03-08T15:41:05;26.07;;;20.63;;
8458;SDS011;4266;48.816;9.154;2024-03-08T15:43:32;29.13;;;20.53;;
8458;SDS011;4266;48.816;9.154;2024-03-08T15:45:58;27.70;;;19.57;;
8458;SDS011;4266;48.816;9.154;2024-03-08T15:48:24;32.03;;;19.87;;
8458;SDS011;4266;48.816;9.154;2024-03-08T15:50:50;32.10;;;20.73;;
8458;SDS011;4266;48.816;9.154;2024-03-08T15:53:16;25.07;;;19.90;;
8458;SDS011;4266;48.816;9.154;2024-03-08T15:55:43;26.83;;;19.63;;
8458;SDS011;4266;48.816;9.154;2024-03-08T15:58:09;23.77;;;19.17;;
8458;SDS011;4266;48.816;9.154;2024-03-08T16:00:35;28.23;;;21.40;;
8458;SDS011;4266;48.816;9.154;2024-03-08T16:03:03;24.90;;;21.20;;
8458;SDS011;4266;48.816;9.154;2024-03-08T16:05:29;27.37;;;20.43;;
8458;SDS011;4266;48.816;9.154;2024-03-08T16:07:54;25.03;;;21.03;;
8458;SDS011;4266;48.816;9.154;2024-03-08T16:10:20;26.43;;;20.37;;
8458;SDS011;4266;48.816;9.154;2024-03-08T16:12:45;27.03;;;20.30;;
8458;SDS011;4266;48.816;9.154;2024-03-08T16:15:12;26.67;;;20.37;;
8458;SDS011;4266;48.816;9.154;2024-03-08T16:17:38;26.83;;;20.57;;
8458;SDS011;4266;48.816;9.154;2024-03-08T16:20:03;24.00;;;19.17;;
8458;SDS011;4266;48.816;9.154;2024-03-08T16:22:30;25.70;;;20.20;;
8458;SDS011;4266;48.816;9.154;2024-03-08T16:24:55;22.77;;;18.87;;
8458;SDS011;4266;48.816;9.154;2024-03-08T16:27:22;24.70;;;19.87;;
8458;SDS011;4266;48.816;9.154;2024-03-08T16:29:47;23.63;;;19.03;;
8458;SDS011;4266;48.816;9.154;2024-03-08T16:32:14;24.57;;;19.77;;
8458;SDS011;4266;48.816;9.154;2024-03-08T16:34:39;24.47;;;19.00;;
8458;SDS011;4266;48.816;9.154;2024-03-08T16:37:06;24.40;;;18.93;;
8458;SDS011;4266;48.816;9.154;2024-03-08T16:39:31;23.80;;;19.43;;
8458;SDS011;4266;48.816;9.154;2024-03-08T16:41:57;26.33;;;19.30;;
8458;SDS011;4266;48.816;9.154;2024-03-08T16:44:24;26.77;;;20.13;;
8458;SDS011;4266;48.816;9.154;2024-03-08T16:46:49;26.37;;;19.23;;
8458;SDS011;4266;48.816;9.154;2024-03-08T16:49:16;28.43;;;19.90;;
8458;SDS011;4266;48.816;9.154;2024-03-08T16:51:42;23.50;;;18.33;;
8458;SDS011;4266;48.816;9.154;2024-03-08T16:54:09;21.93;;;18.20;;
8458;SDS011;4266;48.816;9.154;2024-03-08T16:56:35;23.97;;;19.07;;
8458;SDS011;4266;48.816;9.154;2024-03-08T16:59:02;25.83;;;19.10;;
8458;SDS011;4266;48.816;9.154;2024-03-08T17:01:28;22.40;;;17.87;;
8458;SDS011;4266;48.816;9.154;2024-03-08T17:03:53;24.47;;;18.67;;
8458;SDS011;4266;48.816;9.154;2024-03-08T17:06:19;23.83;;;18.47;;
8458;SDS011;4266;48.816;9.154;2024-03-08T17:08:45;24.23;;;18.37;;
8458;SDS011;4266;48.816;9.154;2024-03-08T17:11:11;24.20;;;17.80;;
8458;SDS011;4266;48.816;9.154;2024-03-08T17:13:37;27.17;;;19.30;;
8458;SDS011;4266;48.816;9.154;2024-03-08T17:16:02;24.70;;;18.50;;
8458;SDS011;4266;48.816;9.154;2024-03-08T17:18:29;23.97;;;18.67;;
8458;SDS011;4266;48.816;9.154;2024-03-08T17:20:54;21.53;;;18.30;;
8458;SDS011;4266;48.816;9.154;2024-03-08T17:23:20;24.03;;;17.30;;
8458;SDS011;4266;48.816;9.154;2024-03-08T17:25:46;22.57;;;17.33;;
8458;SDS011;4266;48.816;9.154;2024-03-08T17:28:11;22.20;;;17.63;;
8458;SDS011;4266;48.816;9.154;2024-03-08T17:30:37;24.53;;;18.03;;
8458;SDS011;4266;48.816;9.154;2024-03-08T17:33:04;24.07;;;17.67;;
8458;SDS011;4266;48.816;9.154;2024-03-08T17:35:30;25.53;;;17.13;;
8458;SDS011;4266;48.816;9.154;2024-03-08T17:37:56;23.03;;;16.77;;
8458;SDS011;4266;48.816;9.154;2024-03-08T17:40:22;21.83;;;17.37;;
8458;SDS011;4266;48.816;9.154;2024-03-08T17:42:49;22.67;;;17.37;;
8458;SDS011;4266;48.816;9.154;2024-03-08T17:45:21;21.57;;;16.87;;
8458;SDS011;4266;48.816;9.154;2024-03-08T17:47:44;23.13;;;17.70;;
8458;SDS011;4266;48.816;9.154;2024-03-08T17:50:11;23.27;;;16.53;;
8458;SDS011;4266;48.816;9.154;2024-03-08T17:52:36;20.50;;;15.73;;
8458;SDS011;4266;48.816;9.154;2024-03-08T17:55:03;20.60;;;16.80;;
8458;SDS011;4266;48.816;9.154;2024-03-08T17:57:30;22.30;;;16.67;;
8458;SDS011;4266;48.816;9.154;2024-03-08T17:59:55;21.53;;;16.47;;
8458;SDS011;4266;48.816;9.154;2024-03-08T18:02:21;17.87;;;15.97;;
8458;SDS011;4266;48.816;9.154;2024-03-08T18:04:47;19.13;;;15.63;;
8458;SDS011;4266;48.816;9.154;2024-03-08T18:07:12;19.00;;;15.30;;
8458;SDS011;4266;48.816;9.154;2024-03-08T18:09:38;18.73;;;14.97;;
8458;SDS011;4266;48.816;9.154;2024-03-08T18:12:04;21.40;;;15.30;;
8458;SDS011;4266;48.816;9.154;2024-03-08T18:14:31;21.80;;;15.90;;
8458;SDS011;4266;48.816;9.154;2024-03-08T18:16:56;20.10;;;16.07;;
8458;SDS011;4266;48.816;9.154;2024-03-08T18:19:22;20.13;;;15.80;;
8458;SDS011;4266;48.816;9.154;2024-03-08T18:21:48;17.70;;;15.53;;
8458;SDS011;4266;48.816;9.154;2024-03-08T18:24:14;18.77;;;15.43;;
8458;SDS011;4266;48.816;9.154;2024-03-08T18:26:40;18.70;;;15.40;;
8458;SDS011;4266;48.816;9.154;2024-03-08T18:29:06;17.80;;;15.10;;
8458;SDS011;4266;48.816;9.154;2024-03-08T18:31:32;20.33;;;14.80;;
8458;SDS011;4266;48.816;9.154;2024-03-08T18:33:57;17.60;;;14.53;;
8458;SDS011;4266;48.816;9.154;2024-03-08T18:36:24;19.00;;;15.30;;
8458;SDS011;4266;48.816;9.154;2024-03-08T18:38:49;20.50;;;15.13;;
8458;SDS011;4266;48.816;9.154;2024-03-08T18:41:15;19.17;;;15.77;;
8458;SDS011;4266;48.816;9.154;2024-03-08T18:43:41;24.47;;;14.63;;
8458;SDS011;4266;48.816;9.154;2024-03-08T18:46:06;19.17;;;15.33;;
8458;SDS011;4266;48.816;9.154;2024-03-08T18:48:32;17.73;;;14.23;;
8458;SDS011;4266;48.816;9.154;2024-03-08T18:50:58;17.37;;;14.50;;
8458;SDS011;4266;48.816;9.154;2024-03-08T18:53:23;19.20;;;15.07;;
8458;SDS011;4266;48.816;9.154;2024-03-08T18:55:49;18.03;;;15.20;;
8458;SDS011;4266;48.816;9.154;2024-03-08T18:58:15;19.30;;;15.87;;
8458;SDS011;4266;48.816;9.154;2024-03-08T19:00:41;17.17;;;14.93;;
8458;SDS011;4266;48.816;9.154;2024-03-08T19:03:07;17.33;;;14.83;;
8458;SDS011;4266;48.816;9.154;2024-03-08T19:05:35;19.00;;;15.03;;
8458;SDS011;4266;48.816;9.154;2024-03-08T19:08:00;25.37;;;16.43;;
8458;SDS011;4266;48.816;9.154;2024-03-08T19:10:26;21.40;;;15.10;;
8458;SDS011;4266;48.816;9.154;2024-03-08T19:12:52;18.67;;;14.80;;
8458;SDS011;4266;48.816;9.154;2024-03-08T19:15:18;18.13;;;15.27;;
8458;SDS011;4266;48.816;9.154;2024-03-08T19:17:44;18.93;;;14.27;;
8458;SDS011;4266;48.816;9.154;2024-03-08T19:20:09;17.00;;;14.77;;
8458;SDS011;4266;48.816;9.154;2024-03-08T19:22:38;19.37;;;14.80;;
8458;SDS011;4266;48.816;9.154;2024-03-08T19:25:04;17.90;;;14.10;;
8458;SDS011;4266;48.816;9.154;2024-03-08T19:27:30;18.27;;;13.90;;
8458;SDS011;4266;48.816;9.154;2024-03-08T19:29:56;17.87;;;14.73;;
8458;SDS011;4266;48.816;9.154;2024-03-08T19:32:21;16.27;;;14.20;;
8458;SDS011;4266;48.816;9.154;2024-03-08T19:34:47;17.53;;;14.03;;
8458;SDS011;4266;48.816;9.154;2024-03-08T19:37:13;19.07;;;14.40;;
8458;SDS011;4266;48.816;9.154;2024-03-08T19:39:39;16.83;;;13.20;;
8458;SDS011;4266;48.816;9.154;2024-03-08T19:42:05;19.77;;;14.67;;
8458;SDS011;4266;48.816;9.154;2024-03-08T19:44:32;18.40;;;15.13;;
8458;SDS011;4266;48.816;9.154;2024-03-08T19:46:57;18.97;;;14.53;;
8458;SDS011;4266;48.816;9.154;2024-03-08T19:49:23;19.37;;;15.40;;
8458;SDS011;4266;48.816;9.154;2024-03-08T19:51:49;19.97;;;15.20;;
8458;SDS011;4266;48.816;9.154;2024-03-08T19:54:14;16.50;;;13.87;;
8458;SDS011;4266;48.816;9.154;2024-03-08T19:56:40;18.00;;;14.60;;
8458;SDS011;4266;48.816;9.154;2024-03-08T19:59:06;22.10;;;15.63;;
8458;SDS011;4266;48.816;9.154;2024-03-08T20:01:31;18.87;;;15.77;;